createdAt,value
2023-01-30T00:01:25.467Z,35.9
2023-01-30T00:03:52.099Z,26.8
2023-01-30T00:06:18.782Z,33.7
2023-01-30T00:08:45.468Z,29.1
2023-01-30T00:11:12.172Z,35
2023-01-30T00:13:37.393Z,28.9
2023-01-30T00:16:04.051Z,30.5
2023-01-30T00:18:30.742Z,29.4
2023-01-30T00:20:57.428Z,31.7
2023-01-30T00:23:24.155Z,33.3
2023-01-30T00:25:50.877Z,31
2023-01-30T00:28:17.493Z,34
2023-01-30T00:30:44.167Z,31.6
2023-01-30T00:33:11.021Z,31.8
2023-01-30T00:35:37.703Z,38.3
2023-01-30T00:38:04.408Z,37.4
2023-01-30T00:40:31.063Z,36
2023-01-30T00:42:57.799Z,36.8
2023-01-30T00:45:23.020Z,33.9
2023-01-30T00:47:49.661Z,37.9
2023-01-30T00:50:16.196Z,37.7
2023-01-30T00:52:43.079Z,36
2023-01-30T00:55:09.697Z,29.4
2023-01-30T00:57:36.442Z,34.4
2023-01-30T01:00:02.927Z,29
2023-01-30T01:02:29.602Z,41.3
2023-01-30T01:04:56.474Z,30.7
2023-01-30T01:07:23.024Z,46.3
2023-01-30T01:09:49.843Z,36
2023-01-30T01:12:16.534Z,32.9
2023-01-30T01:14:43.070Z,37.5
2023-01-30T01:17:08.290Z,33.6
2023-01-30T01:19:35.196Z,41.4
2023-01-30T01:22:01.826Z,31.9
2023-01-30T01:24:28.528Z,33.8
2023-01-30T01:26:55.184Z,35.8
2023-01-30T01:29:21.705Z,32
2023-01-30T01:31:48.560Z,40.3
2023-01-30T01:34:15.233Z,35.7
2023-01-30T01:36:41.839Z,33.5
2023-01-30T01:39:08.555Z,30.2
2023-01-30T01:41:35.177Z,41.3
2023-01-30T01:44:02.035Z,37.2
2023-01-30T01:46:28.676Z,31.6
2023-01-30T01:48:53.905Z,37
2023-01-30T01:51:20.628Z,38.3
2023-01-30T01:53:47.194Z,42.7
2023-01-30T01:56:13.915Z,41.2
2023-01-30T01:58:40.634Z,41.4
2023-01-30T02:01:07.276Z,41.2
2023-01-30T02:03:33.984Z,45.4
2023-01-30T02:06:00.792Z,37.2
2023-01-30T02:08:27.363Z,35.9
2023-01-30T02:10:54.103Z,43.7
2023-01-30T02:13:20.800Z,43.8
2023-01-30T02:15:47.341Z,44.3
2023-01-30T02:18:14.157Z,41
2023-01-30T02:20:39.303Z,45.3
2023-01-30T02:23:06.035Z,47.3
2023-01-30T02:25:32.676Z,49.3
2023-01-30T02:27:59.407Z,49.2
2023-01-30T02:30:26.066Z,41.9
2023-01-30T02:32:52.830Z,41.8
2023-01-30T02:35:19.293Z,35.4
2023-01-30T02:37:46.141Z,39.9
2023-01-30T02:40:12.860Z,43.5
2023-01-30T02:42:39.360Z,34.6
2023-01-30T02:45:06.192Z,41.4
2023-01-30T02:47:32.824Z,39.2
2023-01-30T02:49:59.598Z,42.5
2023-01-30T02:52:24.825Z,40.8
2023-01-30T02:54:51.526Z,32.5
2023-01-30T02:57:18.184Z,34.9
2023-01-30T02:59:44.857Z,38.9
2023-01-30T03:02:11.602Z,38.8
2023-01-30T03:04:38.247Z,40.1
2023-01-30T03:07:04.966Z,35.2
2023-01-30T03:09:31.655Z,35.7
2023-01-30T03:11:58.292Z,33.3
2023-01-30T03:14:24.954Z,38.4
2023-01-30T03:16:51.675Z,44.7
2023-01-30T03:19:18.314Z,38.1
2023-01-30T03:21:45.039Z,39.7
2023-01-30T03:24:10.253Z,33.2
2023-01-30T03:26:36.942Z,39.7
2023-01-30T03:29:03.449Z,38.5
2023-01-30T03:31:30.335Z,38.5
2023-01-30T03:33:56.868Z,34.1
2023-01-30T03:36:22.157Z,40.3
2023-01-30T03:38:48.838Z,40.5
2023-01-30T03:41:15.444Z,33.4
2023-01-30T03:43:42.302Z,36.9
2023-01-30T03:46:08.818Z,37.9
2023-01-30T03:48:35.669Z,35.9
2023-01-30T03:51:02.193Z,41.9
2023-01-30T03:53:28.999Z,40.3
2023-01-30T03:55:55.565Z,36.9
2023-01-30T03:58:22.376Z,35.7
2023-01-30T04:00:49.045Z,40.4
2023-01-30T04:03:15.804Z,40.3
2023-01-30T04:05:42.307Z,39.7
2023-01-30T04:08:07.712Z,40.7
2023-01-30T04:10:34.210Z,40.3
2023-01-30T04:13:01.011Z,38.6
2023-01-30T04:15:27.700Z,34.4
2023-01-30T04:17:54.385Z,29.2
2023-01-30T04:20:21.101Z,46.9
2023-01-30T04:22:47.635Z,35.6
2023-01-30T04:25:14.319Z,33.7
2023-01-30T04:27:41.044Z,35.7
2023-01-30T04:30:07.756Z,32.8
2023-01-30T04:32:34.526Z,31.4
2023-01-30T04:35:01.096Z,31
2023-01-30T04:37:27.901Z,27.1
2023-01-30T04:39:53.157Z,24.5
2023-01-30T04:42:19.830Z,26.9
2023-01-30T04:44:46.521Z,24.8
2023-01-30T04:47:13.144Z,26.1
2023-01-30T04:49:39.814Z,22
2023-01-30T04:52:06.435Z,23.8
2023-01-30T04:54:33.090Z,18.4
2023-01-30T04:56:59.955Z,18.7
2023-01-30T04:59:26.637Z,22.9
2023-01-30T05:01:53.152Z,20.3
2023-01-30T05:04:19.897Z,20.4
2023-01-30T05:06:46.692Z,23.2
2023-01-30T05:09:13.278Z,18.3
2023-01-30T05:11:38.610Z,25.8
2023-01-30T05:14:05.246Z,18.3
2023-01-30T05:16:31.985Z,18.6
2023-01-30T05:18:58.746Z,20.5
2023-01-30T05:21:25.295Z,21.3
2023-01-30T05:23:51.997Z,20.1
2023-01-30T05:26:18.551Z,17
2023-01-30T05:28:45.400Z,17.5
2023-01-30T05:31:12.095Z,18.5
2023-01-30T05:33:38.704Z,16.3
2023-01-30T05:36:05.400Z,18.9
2023-01-30T05:38:31.966Z,16.8
2023-01-30T05:40:58.650Z,19
2023-01-30T05:43:24.028Z,18.7
2023-01-30T05:45:50.685Z,16.2
2023-01-30T05:48:17.265Z,19.9
2023-01-30T05:50:43.944Z,21.3
2023-01-30T05:53:10.735Z,18
2023-01-30T05:55:37.383Z,22.1
2023-01-30T05:58:03.993Z,19.5
2023-01-30T06:00:30.694Z,17.6
2023-01-30T06:02:57.542Z,14.3
2023-01-30T06:05:24.137Z,17
2023-01-30T06:07:50.843Z,17.6
2023-01-30T06:10:17.446Z,19.6
2023-01-30T06:12:44.241Z,17.3
2023-01-30T06:15:09.464Z,17.1
2023-01-30T06:17:36.186Z,18.5
2023-01-30T06:20:02.715Z,16
2023-01-30T06:22:29.465Z,19.6
2023-01-30T06:24:56.182Z,17.7
2023-01-30T06:27:22.805Z,17.7
2023-01-30T06:29:49.765Z,17.5
2023-01-30T06:32:16.237Z,18.6
2023-01-30T06:34:42.991Z,17
2023-01-30T06:37:09.752Z,14.2
2023-01-30T06:39:36.493Z,15.3
2023-01-30T06:42:03.132Z,14.4
2023-01-30T06:44:29.571Z,13.3
2023-01-30T06:46:56.355Z,14.6
2023-01-30T06:49:23.018Z,15.2
2023-01-30T06:51:48.165Z,15.6
2023-01-30T06:54:15.020Z,16
2023-01-30T06:56:41.677Z,13.2
2023-01-30T06:59:08.231Z,15.4
2023-01-30T07:01:34.993Z,13.5
2023-01-30T07:04:01.656Z,15.6
2023-01-30T07:06:28.277Z,13.6
2023-01-30T07:08:54.979Z,14.7
2023-01-30T07:11:21.659Z,20.4
2023-01-30T07:13:48.461Z,15.2
2023-01-30T07:16:15.527Z,15.4
2023-01-30T07:18:41.787Z,15.6
2023-01-30T07:21:08.531Z,14
2023-01-30T07:23:33.742Z,15.5
2023-01-30T07:26:00.434Z,13.3
2023-01-30T07:28:27.117Z,14.8
2023-01-30T07:30:53.659Z,17.4
2023-01-30T07:33:20.515Z,16.2
2023-01-30T07:35:47.019Z,17.2
2023-01-30T07:38:13.708Z,15.3
2023-01-30T07:40:40.502Z,13.4
2023-01-30T07:43:07.284Z,11.7
2023-01-30T07:45:33.909Z,14.3
2023-01-30T07:48:00.492Z,12.5
2023-01-30T07:50:27.159Z,13.8
2023-01-30T07:52:54.080Z,13.4
2023-01-30T07:55:19.239Z,13
2023-01-30T07:57:45.854Z,13.7
2023-01-30T08:00:12.548Z,11.9
2023-01-30T08:02:39.192Z,15.3
2023-01-30T08:05:05.800Z,12.3
2023-01-30T08:07:32.632Z,13.7
2023-01-30T08:09:59.182Z,14.5
2023-01-30T08:12:25.844Z,11.6
2023-01-30T08:14:52.610Z,11.3
2023-01-30T08:17:19.372Z,12.5
2023-01-30T08:19:45.995Z,14.4
2023-01-30T08:22:12.606Z,10.8
2023-01-30T08:24:39.295Z,15.3
2023-01-30T08:27:04.613Z,12.4
2023-01-30T08:29:31.345Z,14.1
2023-01-30T08:31:58.044Z,12.8
2023-01-30T08:34:24.674Z,13.8
2023-01-30T08:36:51.446Z,11.7
2023-01-30T08:39:17.957Z,11.2
2023-01-30T08:41:44.755Z,13.7
2023-01-30T08:46:38.016Z,7.6
2023-01-30T08:51:31.364Z,11.6
2023-01-30T08:53:58.198Z,11.4
2023-01-30T08:56:24.904Z,11
2023-01-30T08:58:50.047Z,8.9
2023-01-30T09:01:16.739Z,9.5
2023-01-30T09:03:43.336Z,11.9
2023-01-30T09:06:10.016Z,12.3
2023-01-30T09:08:36.874Z,9.7
2023-01-30T09:11:03.379Z,9.4
2023-01-30T09:13:30.241Z,9
2023-01-30T09:15:56.894Z,12.4
2023-01-30T09:18:23.448Z,9.5
2023-01-30T09:20:50.229Z,9.7
2023-01-30T09:23:16.935Z,10.9
2023-01-30T09:25:43.604Z,8.1
2023-01-30T09:28:10.215Z,9.2
2023-01-30T09:30:35.522Z,8.8
2023-01-30T09:33:02.204Z,9
2023-01-30T09:35:28.900Z,9.9
2023-01-30T09:37:55.514Z,8.3
2023-01-30T09:40:22.151Z,9
2023-01-30T09:42:48.929Z,8.1
2023-01-30T09:45:15.692Z,10.1
2023-01-30T09:47:42.259Z,8.2
2023-01-30T09:50:08.979Z,7.1
2023-01-30T09:52:35.597Z,5.6
2023-01-30T09:55:02.369Z,6.1
2023-01-30T09:57:29.032Z,9.1
2023-01-30T09:59:55.768Z,9.4
2023-01-30T10:02:20.992Z,8
2023-01-30T10:07:14.351Z,7.4
2023-01-30T10:09:41.000Z,6.7
2023-01-30T10:12:07.650Z,8.9
2023-01-30T10:14:34.473Z,6.8
2023-01-30T10:17:01.355Z,8.7
2023-01-30T10:19:27.693Z,6.8
2023-01-30T10:21:54.581Z,7.3
2023-01-30T10:26:47.829Z,8.8
2023-01-30T10:29:14.553Z,9.2
2023-01-30T10:31:41.268Z,6.6
2023-01-30T10:34:06.487Z,8.9
2023-01-30T10:36:33.016Z,5.5
2023-01-30T10:38:59.873Z,7.3
2023-01-30T10:41:26.364Z,7.4
2023-01-30T10:43:53.191Z,7.8
2023-01-30T10:46:19.911Z,6.2
2023-01-30T10:48:46.477Z,7.9
2023-01-30T10:51:13.101Z,6.6
2023-01-30T10:53:39.821Z,8.3
2023-01-30T10:56:06.515Z,5.7
2023-01-30T10:58:33.156Z,5.1
2023-01-30T11:00:59.949Z,6.9
2023-01-30T11:03:26.525Z,6.5
2023-01-30T11:05:51.886Z,6.6
2023-01-30T11:08:18.439Z,6.8
2023-01-30T11:10:45.148Z,4.3
2023-01-30T11:13:11.835Z,4.5
2023-01-30T11:15:38.543Z,5
2023-01-30T11:20:31.891Z,4.9
2023-01-30T11:22:58.701Z,7
2023-01-30T11:25:25.246Z,5.9
2023-01-30T11:27:52.159Z,6.7
2023-01-30T11:32:45.430Z,6
2023-01-30T11:35:12.114Z,6.1
2023-01-30T11:40:04.063Z,6.7
2023-01-30T11:42:29.289Z,6.4
2023-01-30T11:44:54.532Z,7.2
2023-01-30T11:47:19.651Z,5.2
2023-01-30T11:49:46.441Z,4.8
2023-01-30T11:52:13.121Z,7.4
2023-01-30T11:54:39.841Z,6.1
2023-01-30T11:57:06.494Z,6.8
2023-01-30T11:59:33.216Z,4.4
2023-01-30T12:01:59.730Z,5.8
2023-01-30T12:04:26.470Z,5.5
2023-01-30T12:06:53.169Z,6.2
2023-01-30T12:09:18.355Z,6
2023-01-30T12:11:43.748Z,6.6
2023-01-30T12:14:10.415Z,5.2
2023-01-30T12:19:03.663Z,6.5
2023-01-30T12:21:30.436Z,4.8
2023-01-30T12:23:57.071Z,4.2
2023-01-30T12:26:23.683Z,7.2
2023-01-30T12:28:50.462Z,4.6
2023-01-30T12:31:17.060Z,4.8
2023-01-30T12:33:43.760Z,5.3
2023-01-30T12:36:10.604Z,4.4
2023-01-30T12:38:37.120Z,4.8
2023-01-30T12:41:03.856Z,6.6
2023-01-30T12:43:29.007Z,5.1
2023-01-30T12:45:55.793Z,6.7
2023-01-30T12:48:22.596Z,5.5
2023-01-30T12:50:49.086Z,5.8
2023-01-30T12:53:15.808Z,7.1
2023-01-30T12:55:42.555Z,6.3
2023-01-30T12:58:09.220Z,6.4
2023-01-30T13:00:35.955Z,9.1
2023-01-30T13:03:02.643Z,7.5
2023-01-30T13:07:55.997Z,6.6
2023-01-30T13:10:22.572Z,7.9
2023-01-30T13:12:49.332Z,7.2
2023-01-30T13:15:14.611Z,5.7
2023-01-30T13:20:07.835Z,6.6
2023-01-30T13:22:34.647Z,7.7
2023-01-30T13:25:01.344Z,9.7
2023-01-30T13:27:27.983Z,8.7
2023-01-30T13:29:54.719Z,13.3
2023-01-30T13:32:21.247Z,9.5
2023-01-30T13:34:48.182Z,9.1
2023-01-30T13:37:14.804Z,6.6
2023-01-30T13:39:41.448Z,6.1
2023-01-30T13:42:08.058Z,8.3
2023-01-30T13:44:34.833Z,8
2023-01-30T13:47:01.392Z,8.1
2023-01-30T13:49:26.742Z,8.8
2023-01-30T13:51:53.423Z,10
2023-01-30T13:54:20.060Z,7.4
2023-01-30T13:56:46.702Z,9.2
2023-01-30T13:59:13.322Z,8.5
2023-01-30T14:01:40.177Z,9.1
2023-01-30T14:06:33.503Z,9.7
2023-01-30T14:09:00.239Z,7.7
2023-01-30T14:11:26.912Z,7
2023-01-30T14:16:20.268Z,8
2023-01-30T14:21:13.571Z,9.7
2023-01-30T14:23:38.953Z,7.8
2023-01-30T14:26:03.983Z,8.5
2023-01-30T14:28:30.834Z,12.2
2023-01-30T14:35:50.891Z,9.3
2023-01-30T14:38:17.543Z,10.7
2023-01-30T14:40:44.259Z,12
2023-01-30T14:43:10.954Z,8.7
2023-01-30T14:45:37.534Z,11.4
2023-01-30T14:48:04.151Z,9.8
2023-01-30T14:50:30.918Z,10.2
2023-01-30T14:52:57.705Z,14.2
2023-01-30T14:55:22.901Z,13
2023-01-30T15:00:16.338Z,6.1
2023-01-30T15:02:41.506Z,8
2023-01-30T15:05:08.208Z,5.3
2023-01-30T15:07:34.902Z,10.2
2023-01-30T15:10:01.615Z,7.1
2023-01-30T15:12:28.224Z,7.1
2023-01-30T15:14:54.921Z,7.9
2023-01-30T15:17:21.596Z,4.6
2023-01-30T15:22:15.070Z,5.1
2023-01-30T15:24:41.721Z,6
2023-01-30T15:27:08.232Z,6.1
2023-01-30T15:29:35.034Z,7.1
2023-01-30T15:32:01.724Z,9
2023-01-30T15:34:26.892Z,3.9
2023-01-30T15:36:53.487Z,5.1
2023-01-30T15:39:20.351Z,5
2023-01-30T15:44:13.742Z,5
2023-01-30T15:46:40.391Z,4.5
2023-01-30T15:49:07.109Z,5.7
2023-01-30T15:51:33.731Z,4.4
2023-01-30T15:54:00.406Z,4
2023-01-30T15:56:26.977Z,4
2023-01-30T15:58:53.682Z,6.5
2023-01-30T16:01:20.334Z,7.6
2023-01-30T16:03:47.189Z,5.6
2023-01-30T16:06:12.426Z,8.3
2023-01-30T16:08:39.088Z,4.6
2023-01-30T16:11:05.829Z,8
2023-01-30T16:13:31.003Z,9.5
2023-01-30T16:15:56.286Z,7.3
2023-01-30T16:18:22.926Z,7.1
2023-01-30T16:20:49.609Z,5.9
2023-01-30T16:23:16.243Z,8.5
2023-01-30T16:28:09.573Z,6.6
2023-01-30T16:30:36.286Z,7.7
2023-01-30T16:33:02.901Z,7.2
2023-01-30T16:35:29.670Z,9.7
2023-01-30T16:37:56.263Z,8.4
2023-01-30T16:42:49.648Z,8.1
2023-01-30T16:47:41.682Z,9.7
2023-01-30T16:50:06.979Z,10
2023-01-30T16:52:32.059Z,9.3
2023-01-30T16:54:58.838Z,8.4
2023-01-30T16:57:25.612Z,7.2
2023-01-30T16:59:52.302Z,7.9
2023-01-30T17:02:18.834Z,9.3
2023-01-30T17:04:45.478Z,13.6
2023-01-30T17:07:12.362Z,12.5
2023-01-30T17:09:38.978Z,12.7
2023-01-30T17:12:05.622Z,10.3
2023-01-30T17:16:59.813Z,10.2
2023-01-30T17:19:25.585Z,9.1
2023-01-30T17:21:52.473Z,8.3
2023-01-30T17:29:11.044Z,8.3
2023-01-30T17:31:37.725Z,9.2
2023-01-30T17:34:04.248Z,7.2
2023-01-30T17:36:30.927Z,8.7
2023-01-30T17:38:57.724Z,8.6
2023-01-30T17:43:51.164Z,8.7
2023-01-30T17:46:17.836Z,10.6
2023-01-30T17:48:44.587Z,10.1
2023-01-30T17:51:11.173Z,8.5
2023-01-30T17:53:37.927Z,8.9
2023-01-30T17:56:02.948Z,11.4
2023-01-30T18:00:56.323Z,10.1
2023-01-30T18:03:23.198Z,8.9
2023-01-30T18:05:49.867Z,8.8
2023-01-30T18:08:16.534Z,7.1
2023-01-30T18:10:43.199Z,8.6
2023-01-30T18:13:09.903Z,8.9
2023-01-30T18:15:36.568Z,7
2023-01-30T18:20:30.011Z,9.6
2023-01-30T18:22:56.627Z,8.2
2023-01-30T18:25:23.296Z,10.8
2023-01-30T18:27:48.606Z,10
2023-01-30T18:30:15.205Z,8.4
2023-01-30T18:32:41.851Z,10.7
2023-01-30T18:35:08.610Z,8.9
2023-01-30T18:37:35.316Z,9.9
2023-01-30T18:40:01.955Z,10.3
2023-01-30T18:42:28.518Z,7.6
2023-01-30T18:44:55.205Z,9
2023-01-30T18:47:21.900Z,8.7
2023-01-30T18:49:48.631Z,9.6
2023-01-30T18:54:40.708Z,12.7
2023-01-30T18:59:34.061Z,9.6
2023-01-30T19:02:00.707Z,10.9
2023-01-30T19:04:25.963Z,10.2
2023-01-30T19:06:52.625Z,10.7
2023-01-30T19:09:19.174Z,7.6
2023-01-30T19:11:45.954Z,10.8
2023-01-30T19:14:12.670Z,8
2023-01-30T19:16:39.330Z,10.5
2023-01-30T19:19:05.937Z,6.2
2023-01-30T19:21:32.763Z,10
2023-01-30T19:23:59.275Z,11.5
2023-01-30T19:26:26.173Z,8.6
2023-01-30T19:28:52.766Z,11.1
2023-01-30T19:31:19.468Z,8.8
2023-01-30T19:33:46.180Z,7.9
2023-01-30T19:38:38.117Z,8.6
2023-01-30T19:41:04.763Z,7.2
2023-01-30T19:45:58.184Z,9.1
2023-01-30T19:48:24.667Z,9.2
2023-01-30T19:50:51.364Z,10.5
2023-01-30T19:53:18.200Z,11
2023-01-30T19:55:44.832Z,11.7
2023-01-30T19:58:11.541Z,8.6
2023-01-30T20:00:38.125Z,13.7
2023-01-30T20:03:03.532Z,11.8
2023-01-30T20:05:30.173Z,6.9
2023-01-30T20:07:56.859Z,7.7
2023-01-30T20:10:23.510Z,7.9
2023-01-30T20:12:50.080Z,8.1
2023-01-30T20:15:16.919Z,8.8
2023-01-30T20:17:43.453Z,8.9
2023-01-30T20:22:36.989Z,8.3
2023-01-30T20:25:03.560Z,9.8
2023-01-30T20:27:30.304Z,7.7
2023-01-30T20:29:57.070Z,10.3
2023-01-30T20:32:23.738Z,8.8
2023-01-30T20:34:48.930Z,8.1
2023-01-30T20:37:15.629Z,8.5
2023-01-30T20:39:42.301Z,9.8
2023-01-30T20:42:07.516Z,10.7
2023-01-30T20:44:32.830Z,9.1
2023-01-30T20:46:59.491Z,8.9
2023-01-30T20:49:25.991Z,11.6
2023-01-30T20:51:52.808Z,9.5
2023-01-30T20:54:19.525Z,9
2023-01-30T20:56:46.255Z,9.2
2023-01-30T20:59:12.825Z,9
2023-01-30T21:01:39.611Z,8.2
2023-01-30T21:04:06.283Z,10.7
2023-01-30T21:06:32.953Z,7.9
2023-01-30T21:08:58.170Z,9.4
2023-01-30T21:11:23.485Z,8.4
2023-01-30T21:13:50.184Z,9.2
2023-01-30T21:16:16.851Z,8.5
2023-01-30T21:18:43.495Z,10.4
2023-01-30T21:21:10.154Z,11.9
2023-01-30T21:23:36.722Z,8.9
2023-01-30T21:26:03.554Z,13.6
2023-01-30T21:28:30.209Z,11
2023-01-30T21:30:56.909Z,11.6
2023-01-30T21:35:50.298Z,9
2023-01-30T21:38:17.028Z,10.9
2023-01-30T21:40:43.584Z,10.9
2023-01-30T21:43:08.895Z,9.1
2023-01-30T21:45:35.398Z,9.5
2023-01-30T21:48:02.108Z,9.2
2023-01-30T21:50:28.963Z,9.5
2023-01-30T21:55:22.216Z,7.8
2023-01-30T21:57:47.552Z,9.2
2023-01-30T22:00:12.779Z,10
2023-01-30T22:02:39.370Z,11.5
2023-01-30T22:05:06.120Z,7.6
2023-01-30T22:07:32.808Z,8.7
2023-01-30T22:09:59.484Z,9.2
2023-01-30T22:12:26.249Z,8
2023-01-30T22:14:52.924Z,8.3
2023-01-30T22:17:19.521Z,12.4
2023-01-30T22:19:46.286Z,9.5
2023-01-30T22:22:12.875Z,9.9
2023-01-30T22:24:38.176Z,12
2023-01-30T22:27:03.436Z,9.8
2023-01-30T22:29:30.186Z,9.3
2023-01-30T22:31:56.819Z,10.2
2023-01-30T22:34:23.456Z,17.4
2023-01-30T22:36:50.212Z,9.4
2023-01-30T22:39:16.790Z,10.7
2023-01-30T22:41:43.393Z,14.4
2023-01-30T22:44:10.087Z,11.8
2023-01-30T22:46:36.874Z,9.3
2023-01-30T22:49:03.445Z,8.5
2023-01-30T22:51:30.133Z,10.1
2023-01-30T22:53:56.911Z,13.7
2023-01-30T22:56:23.558Z,7.9
2023-01-30T22:58:50.420Z,10.6
2023-01-30T23:01:17.077Z,8.3
2023-01-30T23:03:42.227Z,11.5
2023-01-30T23:06:08.942Z,11.4
2023-01-30T23:08:35.579Z,13
2023-01-30T23:11:02.214Z,11.3
2023-01-30T23:13:28.951Z,7.7
2023-01-30T23:15:55.512Z,12.5
2023-01-30T23:18:22.305Z,10.2
2023-01-30T23:20:49.054Z,9.7
2023-01-30T23:23:15.795Z,10.6
2023-01-30T23:25:42.458Z,8.1
2023-01-30T23:28:09.191Z,7.9
2023-01-30T23:30:35.795Z,8
2023-01-30T23:33:02.516Z,9.6
2023-01-30T23:35:27.764Z,9.2
2023-01-30T23:37:54.298Z,8.8
2023-01-30T23:40:21.124Z,12.8
2023-01-30T23:42:47.763Z,7.8
2023-01-30T23:45:14.322Z,8.9
2023-01-30T23:47:41.134Z,11.3
2023-01-30T23:50:07.658Z,7.6
2023-01-30T23:52:34.470Z,9.2
2023-01-30T23:55:01.187Z,8.5
2023-01-30T23:57:27.850Z,8.4
2023-01-30T23:59:54.514Z,8.5
